sensor_id;sensor_type;location;lat;lon;timestamp;P1;durP1;ratioP1;P2;durP2;ratioP2
5612;SDS011;63463;53.586;9.928;2023-03-11T00:01:53;16.40;;;12.80;;
5612;SDS011;63463;53.586;9.928;2023-03-11T00:04:19;15.57;;;11.37;;
5612;SDS011;63463;53.586;9.928;2023-03-11T00:06:45;19.50;;;12.93;;
5612;SDS011;63463;53.586;9.928;2023-03-11T00:09:11;14.90;;;11.33;;
5612;SDS011;63463;53.586;9.928;2023-03-11T00:11:37;17.87;;;12.07;;
5612;SDS011;63463;53.586;9.928;2023-03-11T00:14:03;21.50;;;12.70;;
5612;SDS011;63463;53.586;9.928;2023-03-11T00:16:29;20.23;;;12.67;;
5612;SDS011;63463;53.586;9.928;2023-03-11T00:18:55;20.57;;;12.47;;
5612;SDS011;63463;53.586;9.928;2023-03-11T00:21:22;18.40;;;12.20;;
5612;SDS011;63463;53.586;9.928;2023-03-11T00:23:48;21.67;;;14.33;;
5612;SDS011;63463;53.586;9.928;2023-03-11T00:26:14;23.17;;;13.40;;
5612;SDS011;63463;53.586;9.928;2023-03-11T00:28:40;20.80;;;13.30;;
5612;SDS011;63463;53.586;9.928;2023-03-11T00:31:06;19.60;;;13.07;;
5612;SDS011;63463;53.586;9.928;2023-03-11T00:33:32;21.70;;;13.70;;
5612;SDS011;63463;53.586;9.928;2023-03-11T00:35:58;22.67;;;14.60;;
5612;SDS011;63463;53.586;9.928;2023-03-11T00:38:23;20.00;;;12.73;;
5612;SDS011;63463;53.586;9.928;2023-03-11T00:40:49;23.73;;;12.53;;
5612;SDS011;63463;53.586;9.928;2023-03-11T00:43:16;21.07;;;13.73;;
5612;SDS011;63463;53.586;9.928;2023-03-11T00:45:42;20.97;;;13.57;;
5612;SDS011;63463;53.586;9.928;2023-03-11T00:48:08;24.13;;;12.97;;
5612;SDS011;63463;53.586;9.928;2023-03-11T00:50:34;26.40;;;13.23;;
5612;SDS011;63463;53.586;9.928;2023-03-11T00:53:02;25.23;;;13.17;;
5612;SDS011;63463;53.586;9.928;2023-03-11T00:55:29;22.50;;;13.90;;
5612;SDS011;63463;53.586;9.928;2023-03-11T00:57:56;25.23;;;13.60;;
5612;SDS011;63463;53.586;9.928;2023-03-11T01:00:24;22.80;;;13.90;;
5612;SDS011;63463;53.586;9.928;2023-03-11T01:02:51;21.67;;;13.07;;
5612;SDS011;63463;53.586;9.928;2023-03-11T01:05:21;20.53;;;14.10;;
5612;SDS011;63463;53.586;9.928;2023-03-11T01:07:47;23.97;;;14.17;;
5612;SDS011;63463;53.586;9.928;2023-03-11T01:10:14;23.63;;;14.53;;
5612;SDS011;63463;53.586;9.928;2023-03-11T01:12:40;21.70;;;13.33;;
5612;SDS011;63463;53.586;9.928;2023-03-11T01:15:07;20.77;;;13.50;;
5612;SDS011;63463;53.586;9.928;2023-03-11T01:17:34;21.30;;;13.30;;
5612;SDS011;63463;53.586;9.928;2023-03-11T01:20:00;23.70;;;13.47;;
5612;SDS011;63463;53.586;9.928;2023-03-11T01:22:26;20.00;;;13.20;;
5612;SDS011;63463;53.586;9.928;2023-03-11T01:24:52;22.67;;;13.50;;
5612;SDS011;63463;53.586;9.928;2023-03-11T01:27:18;20.50;;;13.07;;
5612;SDS011;63463;53.586;9.928;2023-03-11T01:29:44;22.63;;;14.33;;
5612;SDS011;63463;53.586;9.928;2023-03-11T01:32:10;22.10;;;13.27;;
5612;SDS011;63463;53.586;9.928;2023-03-11T01:34:38;24.43;;;14.47;;
5612;SDS011;63463;53.586;9.928;2023-03-11T01:37:04;23.87;;;13.13;;
5612;SDS011;63463;53.586;9.928;2023-03-11T01:39:30;23.63;;;14.17;;
5612;SDS011;63463;53.586;9.928;2023-03-11T01:41:56;22.67;;;13.67;;
5612;SDS011;63463;53.586;9.928;2023-03-11T01:44:22;21.40;;;14.07;;
5612;SDS011;63463;53.586;9.928;2023-03-11T01:49:17;32.63;;;14.53;;
5612;SDS011;63463;53.586;9.928;2023-03-11T01:51:45;15.83;;;12.10;;
5612;SDS011;63463;53.586;9.928;2023-03-11T01:54:14;23.80;;;12.13;;
5612;SDS011;63463;53.586;9.928;2023-03-11T01:56:41;18.10;;;12.03;;
5612;SDS011;63463;53.586;9.928;2023-03-11T01:59:10;22.23;;;12.90;;
5612;SDS011;63463;53.586;9.928;2023-03-11T02:01:37;17.20;;;11.80;;
5612;SDS011;63463;53.586;9.928;2023-03-11T02:04:06;23.40;;;13.23;;
5612;SDS011;63463;53.586;9.928;2023-03-11T02:06:32;23.63;;;12.37;;
5612;SDS011;63463;53.586;9.928;2023-03-11T02:08:59;20.63;;;12.93;;
5612;SDS011;63463;53.586;9.928;2023-03-11T02:11:26;18.37;;;11.40;;
5612;SDS011;63463;53.586;9.928;2023-03-11T02:13:55;23.47;;;14.60;;
5612;SDS011;63463;53.586;9.928;2023-03-11T02:16:21;29.10;;;12.53;;
5612;SDS011;63463;53.586;9.928;2023-03-11T02:18:47;18.27;;;13.07;;
5612;SDS011;63463;53.586;9.928;2023-03-11T02:21:21;21.57;;;12.60;;
5612;SDS011;63463;53.586;9.928;2023-03-11T02:26:40;19.90;;;13.20;;
5612;SDS011;63463;53.586;9.928;2023-03-11T02:29:03;24.77;;;12.93;;
5612;SDS011;63463;53.586;9.928;2023-03-11T02:31:31;17.10;;;11.43;;
5612;SDS011;63463;53.586;9.928;2023-03-11T02:33:57;23.20;;;11.83;;
5612;SDS011;63463;53.586;9.928;2023-03-11T02:36:37;25.10;;;12.80;;
5612;SDS011;63463;53.586;9.928;2023-03-11T02:39:04;20.53;;;13.40;;
5612;SDS011;63463;53.586;9.928;2023-03-11T02:41:30;21.50;;;12.20;;
5612;SDS011;63463;53.586;9.928;2023-03-11T02:43:57;21.93;;;12.90;;
5612;SDS011;63463;53.586;9.928;2023-03-11T02:46:23;20.17;;;11.80;;
5612;SDS011;63463;53.586;9.928;2023-03-11T02:48:50;17.60;;;11.30;;
5612;SDS011;63463;53.586;9.928;2023-03-11T02:51:16;21.80;;;12.97;;
5612;SDS011;63463;53.586;9.928;2023-03-11T02:53:47;20.37;;;12.80;;
5612;SDS011;63463;53.586;9.928;2023-03-11T02:56:14;20.57;;;13.57;;
5612;SDS011;63463;53.586;9.928;2023-03-11T02:58:40;22.97;;;13.60;;
5612;SDS011;63463;53.586;9.928;2023-03-11T03:01:06;26.47;;;13.83;;
5612;SDS011;63463;53.586;9.928;2023-03-11T03:03:32;21.13;;;12.30;;
5612;SDS011;63463;53.586;9.928;2023-03-11T03:05:58;20.40;;;11.73;;
5612;SDS011;63463;53.586;9.928;2023-03-11T03:08:24;17.50;;;11.50;;
5612;SDS011;63463;53.586;9.928;2023-03-11T03:10:50;19.93;;;11.90;;
5612;SDS011;63463;53.586;9.928;2023-03-11T03:13:16;17.13;;;11.67;;
5612;SDS011;63463;53.586;9.928;2023-03-11T03:15:42;18.60;;;11.07;;
5612;SDS011;63463;53.586;9.928;2023-03-11T03:18:08;20.47;;;12.33;;
5612;SDS011;63463;53.586;9.928;2023-03-11T03:20:34;19.13;;;11.30;;
5612;SDS011;63463;53.586;9.928;2023-03-11T03:23:00;17.17;;;11.23;;
5612;SDS011;63463;53.586;9.928;2023-03-11T03:25:26;19.17;;;12.00;;
5612;SDS011;63463;53.586;9.928;2023-03-11T03:27:52;17.47;;;11.20;;
5612;SDS011;63463;53.586;9.928;2023-03-11T03:30:18;18.97;;;11.27;;
5612;SDS011;63463;53.586;9.928;2023-03-11T03:32:44;21.27;;;12.03;;
5612;SDS011;63463;53.586;9.928;2023-03-11T03:35:10;16.67;;;11.33;;
5612;SDS011;63463;53.586;9.928;2023-03-11T03:37:36;18.53;;;11.40;;
5612;SDS011;63463;53.586;9.928;2023-03-11T03:40:03;17.50;;;11.80;;
5612;SDS011;63463;53.586;9.928;2023-03-11T03:42:35;17.60;;;11.73;;
5612;SDS011;63463;53.586;9.928;2023-03-11T03:45:02;19.80;;;12.70;;
5612;SDS011;63463;53.586;9.928;2023-03-11T03:47:28;21.93;;;11.77;;
5612;SDS011;63463;53.586;9.928;2023-03-11T03:49:54;17.63;;;11.67;;
5612;SDS011;63463;53.586;9.928;2023-03-11T03:52:20;16.90;;;11.77;;
5612;SDS011;63463;53.586;9.928;2023-03-11T03:54:46;17.67;;;12.23;;
5612;SDS011;63463;53.586;9.928;2023-03-11T03:57:12;18.63;;;11.23;;
5612;SDS011;63463;53.586;9.928;2023-03-11T03:59:38;17.20;;;11.80;;
5612;SDS011;63463;53.586;9.928;2023-03-11T04:02:04;19.60;;;11.13;;
5612;SDS011;63463;53.586;9.928;2023-03-11T04:04:30;13.30;;;10.00;;
5612;SDS011;63463;53.586;9.928;2023-03-11T04:06:57;21.17;;;11.13;;
5612;SDS011;63463;53.586;9.928;2023-03-11T04:09:23;16.87;;;11.47;;
5612;SDS011;63463;53.586;9.928;2023-03-11T04:11:49;14.67;;;11.50;;
5612;SDS011;63463;53.586;9.928;2023-03-11T04:14:16;17.20;;;10.80;;
5612;SDS011;63463;53.586;9.928;2023-03-11T04:16:42;14.33;;;11.10;;
5612;SDS011;63463;53.586;9.928;2023-03-11T04:19:08;14.30;;;11.47;;
5612;SDS011;63463;53.586;9.928;2023-03-11T04:21:34;12.00;;;9.63;;
5612;SDS011;63463;53.586;9.928;2023-03-11T04:24:00;17.40;;;11.33;;
5612;SDS011;63463;53.586;9.928;2023-03-11T04:26:26;12.93;;;10.60;;
5612;SDS011;63463;53.586;9.928;2023-03-11T04:28:53;17.47;;;11.13;;
5612;SDS011;63463;53.586;9.928;2023-03-11T04:31:19;16.07;;;11.10;;
5612;SDS011;63463;53.586;9.928;2023-03-11T04:33:45;18.27;;;11.53;;
5612;SDS011;63463;53.586;9.928;2023-03-11T04:36:11;14.83;;;11.10;;
5612;SDS011;63463;53.586;9.928;2023-03-11T04:38:37;15.23;;;10.73;;
5612;SDS011;63463;53.586;9.928;2023-03-11T04:41:03;21.43;;;12.70;;
5612;SDS011;63463;53.586;9.928;2023-03-11T04:43:29;13.07;;;10.97;;
5612;SDS011;63463;53.586;9.928;2023-03-11T04:45:55;15.10;;;10.43;;
5612;SDS011;63463;53.586;9.928;2023-03-11T04:48:21;18.10;;;10.10;;
5612;SDS011;63463;53.586;9.928;2023-03-11T04:50:48;12.97;;;10.30;;
5612;SDS011;63463;53.586;9.928;2023-03-11T04:53:14;19.90;;;9.87;;
5612;SDS011;63463;53.586;9.928;2023-03-11T04:55:40;11.97;;;9.60;;
5612;SDS011;63463;53.586;9.928;2023-03-11T04:58:06;15.87;;;11.47;;
5612;SDS011;63463;53.586;9.928;2023-03-11T05:00:32;14.97;;;9.60;;
5612;SDS011;63463;53.586;9.928;2023-03-11T05:02:58;14.00;;;10.10;;
5612;SDS011;63463;53.586;9.928;2023-03-11T05:05:24;14.90;;;10.53;;
5612;SDS011;63463;53.586;9.928;2023-03-11T05:07:50;12.00;;;9.53;;
5612;SDS011;63463;53.586;9.928;2023-03-11T05:10:16;11.83;;;10.00;;
5612;SDS011;63463;53.586;9.928;2023-03-11T05:12:46;15.77;;;10.27;;
5612;SDS011;63463;53.586;9.928;2023-03-11T05:15:12;14.17;;;10.47;;
5612;SDS011;63463;53.586;9.928;2023-03-11T05:17:38;14.63;;;10.70;;
5612;SDS011;63463;53.586;9.928;2023-03-11T05:20:04;12.47;;;10.17;;
5612;SDS011;63463;53.586;9.928;2023-03-11T05:22:32;14.13;;;10.37;;
5612;SDS011;63463;53.586;9.928;2023-03-11T05:24:58;12.77;;;9.10;;
5612;SDS011;63463;53.586;9.928;2023-03-11T05:27:24;11.03;;;8.80;;
5612;SDS011;63463;53.586;9.928;2023-03-11T05:29:50;16.80;;;10.10;;
5612;SDS011;63463;53.586;9.928;2023-03-11T05:32:16;12.67;;;10.10;;
5612;SDS011;63463;53.586;9.928;2023-03-11T05:34:43;17.20;;;9.80;;
5612;SDS011;63463;53.586;9.928;2023-03-11T05:37:09;17.60;;;10.50;;
5612;SDS011;63463;53.586;9.928;2023-03-11T05:39:35;11.93;;;9.83;;
5612;SDS011;63463;53.586;9.928;2023-03-11T05:42:02;14.53;;;10.67;;
5612;SDS011;63463;53.586;9.928;2023-03-11T05:44:28;13.50;;;10.50;;
5612;SDS011;63463;53.586;9.928;2023-03-11T05:46:54;14.87;;;10.03;;
5612;SDS011;63463;53.586;9.928;2023-03-11T05:49:20;12.30;;;9.73;;
5612;SDS011;63463;53.586;9.928;2023-03-11T05:51:46;13.83;;;10.70;;
5612;SDS011;63463;53.586;9.928;2023-03-11T05:54:12;13.20;;;9.77;;
5612;SDS011;63463;53.586;9.928;2023-03-11T05:56:41;13.43;;;10.57;;
5612;SDS011;63463;53.586;9.928;2023-03-11T05:59:08;23.93;;;10.83;;
5612;SDS011;63463;53.586;9.928;2023-03-11T06:01:34;15.50;;;10.03;;
5612;SDS011;63463;53.586;9.928;2023-03-11T06:04:00;13.07;;;10.00;;
5612;SDS011;63463;53.586;9.928;2023-03-11T06:06:26;16.70;;;11.10;;
5612;SDS011;63463;53.586;9.928;2023-03-11T06:08:53;17.20;;;10.40;;
5612;SDS011;63463;53.586;9.928;2023-03-11T06:11:19;15.83;;;10.73;;
5612;SDS011;63463;53.586;9.928;2023-03-11T06:13:47;13.77;;;10.33;;
5612;SDS011;63463;53.586;9.928;2023-03-11T06:16:16;11.10;;;9.00;;
5612;SDS011;63463;53.586;9.928;2023-03-11T06:18:42;14.73;;;9.90;;
5612;SDS011;63463;53.586;9.928;2023-03-11T06:21:08;11.37;;;9.27;;
5612;SDS011;63463;53.586;9.928;2023-03-11T06:23:36;18.80;;;10.97;;
5612;SDS011;63463;53.586;9.928;2023-03-11T06:26:03;18.97;;;11.97;;
5612;SDS011;63463;53.586;9.928;2023-03-11T06:28:30;15.17;;;10.80;;
5612;SDS011;63463;53.586;9.928;2023-03-11T06:31:04;16.60;;;11.23;;
5612;SDS011;63463;53.586;9.928;2023-03-11T06:33:31;17.90;;;12.03;;
5612;SDS011;63463;53.586;9.928;2023-03-11T06:36:03;24.60;;;10.57;;
5612;SDS011;63463;53.586;9.928;2023-03-11T06:38:30;14.47;;;9.67;;
5612;SDS011;63463;53.586;9.928;2023-03-11T06:41:00;19.73;;;11.50;;
5612;SDS011;63463;53.586;9.928;2023-03-11T06:43:27;13.83;;;9.90;;
5612;SDS011;63463;53.586;9.928;2023-03-11T06:45:54;14.60;;;10.40;;
5612;SDS011;63463;53.586;9.928;2023-03-11T06:48:21;15.07;;;9.70;;
5612;SDS011;63463;53.586;9.928;2023-03-11T06:50:53;11.40;;;9.30;;
5612;SDS011;63463;53.586;9.928;2023-03-11T06:53:21;12.83;;;10.10;;
5612;SDS011;63463;53.586;9.928;2023-03-11T06:58:42;13.50;;;10.43;;
5612;SDS011;63463;53.586;9.928;2023-03-11T07:01:14;14.13;;;10.23;;
5612;SDS011;63463;53.586;9.928;2023-03-11T07:03:41;17.10;;;10.40;;
5612;SDS011;63463;53.586;9.928;2023-03-11T07:06:11;10.80;;;9.37;;
5612;SDS011;63463;53.586;9.928;2023-03-11T07:08:38;19.40;;;9.90;;
5612;SDS011;63463;53.586;9.928;2023-03-11T07:11:15;11.00;;;9.07;;
5612;SDS011;63463;53.586;9.928;2023-03-11T07:13:45;13.77;;;9.20;;
5612;SDS011;63463;53.586;9.928;2023-03-11T07:16:13;10.77;;;9.37;;
5612;SDS011;63463;53.586;9.928;2023-03-11T07:18:41;15.47;;;9.43;;
5612;SDS011;63463;53.586;9.928;2023-03-11T07:21:11;13.07;;;10.17;;
5612;SDS011;63463;53.586;9.928;2023-03-11T07:23:42;12.27;;;9.37;;
5612;SDS011;63463;53.586;9.928;2023-03-11T07:26:09;16.33;;;10.43;;
5612;SDS011;63463;53.586;9.928;2023-03-11T07:28:35;10.40;;;9.20;;
5612;SDS011;63463;53.586;9.928;2023-03-11T07:31:07;13.43;;;9.47;;
5612;SDS011;63463;53.586;9.928;2023-03-11T07:33:35;12.73;;;9.70;;
5612;SDS011;63463;53.586;9.928;2023-03-11T07:36:11;14.30;;;10.13;;
5612;SDS011;63463;53.586;9.928;2023-03-11T07:38:38;11.23;;;9.20;;
5612;SDS011;63463;53.586;9.928;2023-03-11T07:41:10;12.70;;;10.23;;
5612;SDS011;63463;53.586;9.928;2023-03-11T07:43:37;12.27;;;10.03;;
5612;SDS011;63463;53.586;9.928;2023-03-11T07:46:07;11.33;;;10.00;;
5612;SDS011;63463;53.586;9.928;2023-03-11T07:48:34;12.73;;;9.43;;
5612;SDS011;63463;53.586;9.928;2023-03-11T07:51:09;12.20;;;9.50;;
5612;SDS011;63463;53.586;9.928;2023-03-11T07:53:39;11.70;;;9.47;;
5612;SDS011;63463;53.586;9.928;2023-03-11T07:56:10;16.93;;;10.30;;
5612;SDS011;63463;53.586;9.928;2023-03-11T07:58:36;15.93;;;10.40;;
5612;SDS011;63463;53.586;9.928;2023-03-11T08:01:07;18.83;;;10.83;;
5612;SDS011;63463;53.586;9.928;2023-03-11T08:03:34;12.80;;;9.80;;
5612;SDS011;63463;53.586;9.928;2023-03-11T08:06:00;15.20;;;9.93;;
5612;SDS011;63463;53.586;9.928;2023-03-11T08:08:26;11.43;;;10.03;;
5612;SDS011;63463;53.586;9.928;2023-03-11T08:10:52;15.20;;;9.70;;
5612;SDS011;63463;53.586;9.928;2023-03-11T08:13:22;10.40;;;9.20;;
5612;SDS011;63463;53.586;9.928;2023-03-11T08:15:51;11.57;;;9.70;;
5612;SDS011;63463;53.586;9.928;2023-03-11T08:18:18;16.17;;;10.03;;
5612;SDS011;63463;53.586;9.928;2023-03-11T08:20:44;15.03;;;8.83;;
5612;SDS011;63463;53.586;9.928;2023-03-11T08:23:10;12.07;;;9.47;;
5612;SDS011;63463;53.586;9.928;2023-03-11T08:25:39;9.83;;;8.70;;
5612;SDS011;63463;53.586;9.928;2023-03-11T08:28:05;12.23;;;8.60;;
5612;SDS011;63463;53.586;9.928;2023-03-11T08:30:32;9.80;;;8.50;;
5612;SDS011;63463;53.586;9.928;2023-03-11T08:32:58;14.30;;;9.30;;
5612;SDS011;63463;53.586;9.928;2023-03-11T08:35:24;11.60;;;8.20;;
5612;SDS011;63463;53.586;9.928;2023-03-11T08:37:51;7.80;;;7.10;;
5612;SDS011;63463;53.586;9.928;2023-03-11T08:40:17;12.87;;;7.87;;
5612;SDS011;63463;53.586;9.928;2023-03-11T08:42:46;9.77;;;8.20;;
5612;SDS011;63463;53.586;9.928;2023-03-11T08:45:13;19.20;;;7.70;;
5612;SDS011;63463;53.586;9.928;2023-03-11T08:47:39;7.70;;;6.80;;
5612;SDS011;63463;53.586;9.928;2023-03-11T08:50:11;9.97;;;7.50;;
5612;SDS011;63463;53.586;9.928;2023-03-11T08:52:37;10.10;;;7.40;;
5612;SDS011;63463;53.586;9.928;2023-03-11T08:55:03;13.40;;;7.50;;
5612;SDS011;63463;53.586;9.928;2023-03-11T08:57:30;8.40;;;7.23;;
5612;SDS011;63463;53.586;9.928;2023-03-11T09:00:02;7.63;;;6.90;;
5612;SDS011;63463;53.586;9.928;2023-03-11T09:02:29;10.60;;;6.77;;
5612;SDS011;63463;53.586;9.928;2023-03-11T09:04:58;7.00;;;6.40;;
5612;SDS011;63463;53.586;9.928;2023-03-11T09:07:24;8.40;;;7.53;;
5612;SDS011;63463;53.586;9.928;2023-03-11T09:09:50;8.17;;;7.33;;
5612;SDS011;63463;53.586;9.928;2023-03-11T09:12:22;8.10;;;6.97;;
5612;SDS011;63463;53.586;9.928;2023-03-11T09:14:51;6.93;;;6.27;;
5612;SDS011;63463;53.586;9.928;2023-03-11T09:17:18;6.87;;;6.30;;
5612;SDS011;63463;53.586;9.928;2023-03-11T09:19:47;9.43;;;7.07;;
5612;SDS011;63463;53.586;9.928;2023-03-11T09:22:14;13.83;;;6.17;;
5612;SDS011;63463;53.586;9.928;2023-03-11T09:24:40;6.83;;;6.23;;
5612;SDS011;63463;53.586;9.928;2023-03-11T09:27:06;8.20;;;6.23;;
5612;SDS011;63463;53.586;9.928;2023-03-11T09:29:32;11.87;;;6.43;;
5612;SDS011;63463;53.586;9.928;2023-03-11T09:32:01;8.00;;;6.00;;
5612;SDS011;63463;53.586;9.928;2023-03-11T09:34:27;7.53;;;5.97;;
5612;SDS011;63463;53.586;9.928;2023-03-11T09:36:56;6.50;;;6.00;;
5612;SDS011;63463;53.586;9.928;2023-03-11T09:39:25;6.50;;;5.83;;
5612;SDS011;63463;53.586;9.928;2023-03-11T09:41:55;10.90;;;6.13;;
5612;SDS011;63463;53.586;9.928;2023-03-11T09:55:02;6.33;;;5.73;;
5612;SDS011;63463;53.586;9.928;2023-03-11T09:57:33;6.70;;;6.20;;
5612;SDS011;63463;53.586;9.928;2023-03-11T10:00:03;7.00;;;6.40;;
5612;SDS011;63463;53.586;9.928;2023-03-11T10:02:30;7.20;;;6.50;;
5612;SDS011;63463;53.586;9.928;2023-03-11T10:05:14;7.03;;;6.40;;
5612;SDS011;63463;53.586;9.928;2023-03-11T10:07:46;6.37;;;5.90;;
5612;SDS011;63463;53.586;9.928;2023-03-11T10:10:14;6.50;;;6.00;;
5612;SDS011;63463;53.586;9.928;2023-03-11T10:28:13;6.77;;;5.90;;
5612;SDS011;63463;53.586;9.928;2023-03-11T10:30:51;5.87;;;5.47;;
5612;SDS011;63463;53.586;9.928;2023-03-11T10:33:34;6.00;;;5.60;;
5612;SDS011;63463;53.586;9.928;2023-03-11T10:36:05;5.93;;;5.63;;
5612;SDS011;63463;53.586;9.928;2023-03-11T10:38:39;6.23;;;5.63;;
5612;SDS011;63463;53.586;9.928;2023-03-11T10:46:30;6.70;;;6.00;;
5612;SDS011;63463;53.586;9.928;2023-03-11T10:49:04;8.30;;;6.10;;
5612;SDS011;63463;53.586;9.928;2023-03-11T10:51:33;6.13;;;5.83;;
5612;SDS011;63463;53.586;9.928;2023-03-11T10:54:02;7.03;;;6.17;;
5612;SDS011;63463;53.586;9.928;2023-03-11T10:56:29;5.70;;;5.20;;
5612;SDS011;63463;53.586;9.928;2023-03-11T10:59:00;6.73;;;6.03;;
5612;SDS011;63463;53.586;9.928;2023-03-11T11:01:27;6.40;;;5.90;;
5612;SDS011;63463;53.586;9.928;2023-03-11T11:03:59;6.80;;;6.20;;
5612;SDS011;63463;53.586;9.928;2023-03-11T11:06:30;6.10;;;5.63;;
5612;SDS011;63463;53.586;9.928;2023-03-11T11:09:04;6.83;;;6.23;;
5612;SDS011;63463;53.586;9.928;2023-03-11T11:11:32;7.37;;;6.00;;
5612;SDS011;63463;53.586;9.928;2023-03-11T11:14:00;8.20;;;6.00;;
5612;SDS011;63463;53.586;9.928;2023-03-11T11:16:27;10.37;;;6.40;;
5612;SDS011;63463;53.586;9.928;2023-03-11T11:19:11;6.40;;;5.80;;
5612;SDS011;63463;53.586;9.928;2023-03-11T11:21:42;7.60;;;6.13;;
5612;SDS011;63463;53.586;9.928;2023-03-11T11:27:01;6.77;;;6.10;;
5612;SDS011;63463;53.586;9.928;2023-03-11T11:29:30;10.03;;;6.10;;
5612;SDS011;63463;53.586;9.928;2023-03-11T11:35:00;7.03;;;5.97;;
5612;SDS011;63463;53.586;9.928;2023-03-11T11:37:31;6.10;;;5.70;;
5612;SDS011;63463;53.586;9.928;2023-03-11T11:42:45;7.30;;;5.03;;
5612;SDS011;63463;53.586;9.928;2023-03-11T11:47:53;5.20;;;4.73;;
5612;SDS011;63463;53.586;9.928;2023-03-11T11:50:25;6.00;;;4.67;;
5612;SDS011;63463;53.586;9.928;2023-03-11T11:52:56;4.93;;;4.63;;
5612;SDS011;63463;53.586;9.928;2023-03-11T11:55:26;6.03;;;4.53;;
5612;SDS011;63463;53.586;9.928;2023-03-11T11:57:53;4.87;;;4.40;;
5612;SDS011;63463;53.586;9.928;2023-03-11T12:00:21;4.67;;;4.37;;
5612;SDS011;63463;53.586;9.928;2023-03-11T12:05:28;5.23;;;4.73;;
5612;SDS011;63463;53.586;9.928;2023-03-11T12:08:04;6.20;;;4.33;;
5612;SDS011;63463;53.586;9.928;2023-03-11T12:15:48;7.10;;;4.53;;
5612;SDS011;63463;53.586;9.928;2023-03-11T12:18:26;6.30;;;4.30;;
5612;SDS011;63463;53.586;9.928;2023-03-11T12:20:53;5.77;;;4.33;;
5612;SDS011;63463;53.586;9.928;2023-03-11T12:31:22;4.50;;;3.80;;
5612;SDS011;63463;53.586;9.928;2023-03-11T12:33:59;4.27;;;4.10;;
5612;SDS011;63463;53.586;9.928;2023-03-11T12:38:56;5.63;;;3.90;;
5612;SDS011;63463;53.586;9.928;2023-03-11T12:41:36;4.53;;;4.30;;
5612;SDS011;63463;53.586;9.928;2023-03-11T12:49:24;6.90;;;4.17;;
5612;SDS011;63463;53.586;9.928;2023-03-11T12:54:41;4.40;;;4.00;;
5612;SDS011;63463;53.586;9.928;2023-03-11T12:57:54;4.10;;;4.00;;
5612;SDS011;63463;53.586;9.928;2023-03-11T13:05:53;4.20;;;4.10;;
5612;SDS011;63463;53.586;9.928;2023-03-11T13:07:49;4.43;;;4.03;;
5612;SDS011;63463;53.586;9.928;2023-03-11T13:10:20;9.63;;;4.57;;
5612;SDS011;63463;53.586;9.928;2023-03-11T13:15:53;5.20;;;4.37;;
5612;SDS011;63463;53.586;9.928;2023-03-11T13:18:22;3.93;;;3.83;;
5612;SDS011;63463;53.586;9.928;2023-03-11T13:20:53;4.03;;;3.83;;
5612;SDS011;63463;53.586;9.928;2023-03-11T13:33:51;4.30;;;4.10;;
5612;SDS011;63463;53.586;9.928;2023-03-11T13:41:51;5.70;;;4.37;;
5612;SDS011;63463;53.586;9.928;2023-03-11T13:44:27;5.23;;;4.90;;
5612;SDS011;63463;53.586;9.928;2023-03-11T13:46:59;7.43;;;4.00;;
5612;SDS011;63463;53.586;9.928;2023-03-11T13:49:31;4.37;;;3.83;;
5612;SDS011;63463;53.586;9.928;2023-03-11T13:51:58;4.10;;;3.83;;
5612;SDS011;63463;53.586;9.928;2023-03-11T13:56:56;4.30;;;4.00;;
5612;SDS011;63463;53.586;9.928;2023-03-11T14:02:15;3.80;;;3.70;;
5612;SDS011;63463;53.586;9.928;2023-03-11T14:04:38;4.17;;;3.73;;
5612;SDS011;63463;53.586;9.928;2023-03-11T14:07:13;4.07;;;3.97;;
5612;SDS011;63463;53.586;9.928;2023-03-11T14:09:44;4.27;;;3.93;;
5612;SDS011;63463;53.586;9.928;2023-03-11T14:12:10;3.83;;;3.63;;
5612;SDS011;63463;53.586;9.928;2023-03-11T14:14:53;4.77;;;3.87;;
5612;SDS011;63463;53.586;9.928;2023-03-11T14:17:21;4.00;;;3.90;;
5612;SDS011;63463;53.586;9.928;2023-03-11T14:22:29;4.43;;;4.00;;
5612;SDS011;63463;53.586;9.928;2023-03-11T14:24:56;4.00;;;3.70;;
5612;SDS011;63463;53.586;9.928;2023-03-11T14:27:23;4.37;;;3.97;;
5612;SDS011;63463;53.586;9.928;2023-03-11T14:29:50;10.60;;;4.70;;
5612;SDS011;63463;53.586;9.928;2023-03-11T14:32:29;3.80;;;3.50;;
5612;SDS011;63463;53.586;9.928;2023-03-11T14:34:56;4.57;;;4.00;;
5612;SDS011;63463;53.586;9.928;2023-03-11T14:37:29;4.60;;;3.83;;
5612;SDS011;63463;53.586;9.928;2023-03-11T14:39:59;4.40;;;4.20;;
5612;SDS011;63463;53.586;9.928;2023-03-11T14:42:27;3.77;;;3.67;;
5612;SDS011;63463;53.586;9.928;2023-03-11T14:44:56;4.40;;;4.13;;
5612;SDS011;63463;53.586;9.928;2023-03-11T14:50:04;7.47;;;4.50;;
5612;SDS011;63463;53.586;9.928;2023-03-11T14:52:40;4.13;;;4.03;;
5612;SDS011;63463;53.586;9.928;2023-03-11T14:55:26;4.97;;;4.60;;
5612;SDS011;63463;53.586;9.928;2023-03-11T14:57:54;4.43;;;4.03;;
5612;SDS011;63463;53.586;9.928;2023-03-11T15:00:26;4.00;;;3.80;;
5612;SDS011;63463;53.586;9.928;2023-03-11T15:05:27;4.43;;;4.23;;
5612;SDS011;63463;53.586;9.928;2023-03-11T15:07:59;5.13;;;4.43;;
5612;SDS011;63463;53.586;9.928;2023-03-11T15:10:26;6.00;;;4.23;;
5612;SDS011;63463;53.586;9.928;2023-03-11T15:13:05;6.13;;;5.00;;
5612;SDS011;63463;53.586;9.928;2023-03-11T15:15:35;6.43;;;4.20;;
5612;SDS011;63463;53.586;9.928;2023-03-11T15:18:14;4.53;;;4.30;;
5612;SDS011;63463;53.586;9.928;2023-03-11T15:20:44;5.63;;;4.40;;
5612;SDS011;63463;53.586;9.928;2023-03-11T15:23:18;9.63;;;4.50;;
5612;SDS011;63463;53.586;9.928;2023-03-11T15:25:47;4.70;;;4.50;;
5612;SDS011;63463;53.586;9.928;2023-03-11T15:28:27;8.63;;;4.70;;
5612;SDS011;63463;53.586;9.928;2023-03-11T15:33:40;4.40;;;4.20;;
5612;SDS011;63463;53.586;9.928;2023-03-11T15:41:40;4.53;;;4.13;;
5612;SDS011;63463;53.586;9.928;2023-03-11T15:44:24;4.50;;;4.40;;
5612;SDS011;63463;53.586;9.928;2023-03-11T15:46:51;5.23;;;4.27;;
5612;SDS011;63463;53.586;9.928;2023-03-11T15:49:18;5.90;;;4.60;;
5612;SDS011;63463;53.586;9.928;2023-03-11T15:51:44;4.50;;;4.30;;
5612;SDS011;63463;53.586;9.928;2023-03-11T15:54:10;5.37;;;4.27;;
5612;SDS011;63463;53.586;9.928;2023-03-11T15:56:37;8.37;;;5.60;;
5612;SDS011;63463;53.586;9.928;2023-03-11T15:59:04;4.73;;;4.53;;
5612;SDS011;63463;53.586;9.928;2023-03-11T16:01:30;6.30;;;4.70;;
5612;SDS011;63463;53.586;9.928;2023-03-11T16:03:56;5.60;;;4.43;;
5612;SDS011;63463;53.586;9.928;2023-03-11T16:06:22;4.60;;;4.50;;
5612;SDS011;63463;53.586;9.928;2023-03-11T16:08:52;4.90;;;4.57;;
5612;SDS011;63463;53.586;9.928;2023-03-11T16:11:21;5.47;;;5.27;;
5612;SDS011;63463;53.586;9.928;2023-03-11T16:13:47;5.07;;;4.87;;
5612;SDS011;63463;53.586;9.928;2023-03-11T16:16:19;5.20;;;4.93;;
5612;SDS011;63463;53.586;9.928;2023-03-11T16:18:48;11.70;;;4.87;;
5612;SDS011;63463;53.586;9.928;2023-03-11T16:21:16;5.77;;;5.30;;
5612;SDS011;63463;53.586;9.928;2023-03-11T16:23:43;5.17;;;4.87;;
5612;SDS011;63463;53.586;9.928;2023-03-11T16:26:10;6.63;;;5.10;;
5612;SDS011;63463;53.586;9.928;2023-03-11T16:28:37;13.17;;;5.50;;
5612;SDS011;63463;53.586;9.928;2023-03-11T16:31:03;4.90;;;4.70;;
5612;SDS011;63463;53.586;9.928;2023-03-11T16:33:29;5.53;;;5.20;;
5612;SDS011;63463;53.586;9.928;2023-03-11T16:35:55;8.73;;;4.73;;
5612;SDS011;63463;53.586;9.928;2023-03-11T16:38:21;7.43;;;5.47;;
5612;SDS011;63463;53.586;9.928;2023-03-11T16:41:21;5.83;;;5.00;;
5612;SDS011;63463;53.586;9.928;2023-03-11T16:43:40;6.57;;;5.27;;
5612;SDS011;63463;53.586;9.928;2023-03-11T16:46:06;5.37;;;5.07;;
5612;SDS011;63463;53.586;9.928;2023-03-11T16:48:32;5.47;;;4.97;;
5612;SDS011;63463;53.586;9.928;2023-03-11T16:50:59;6.33;;;5.73;;
5612;SDS011;63463;53.586;9.928;2023-03-11T16:53:28;6.80;;;5.50;;
5612;SDS011;63463;53.586;9.928;2023-03-11T16:55:57;5.83;;;5.33;;
5612;SDS011;63463;53.586;9.928;2023-03-11T16:58:23;5.97;;;5.40;;